Airfield :







YOU CAN JOIN US ON...

 
LOGIN :

Register | Disclaimer

   EN    FR    IT 

 









Legend :    VFR   Marginal VFR   IFR   Intensive IFR   Very Intensive IFR
Visi :
Ceiling :
>= 8 km
>= 3000ft
5 to 8 km
1000 to 3000 ft
1500m to 5 km
500 to 1000 ft
800 to 1500m
200 to 500 ft
< 800m
< 200 ft
Symbols :   Thunderstorms  Fog  Heavy snow  Heavy precipitations  Wind > 20 kt






- Airport Elevation : 40 ft
- IATA code : YRF


CYCA - Cartwright

CURRENT METAR :
  • 251835Z AUTO 21011G16KT 9SM BKN100 OVC120 15/02 A2982 RMK SLP100 DENSITY ALT 200FT

EXPIRED METARs :
  • 251825Z AUTO 22010G15KT 9SM -RA SCT100 OVC130 15/02 A2982 RMK SLP102 DENSITY ALT 100FT
  • 251800Z AUTO 21010G18KT 9SM SCT100 BKN130 17/02 A2983 RMK SLP103 DENSITY ALT 300FT
  • 251700Z AUTO 21014G25KT 9SM BKN090 BKN110 OVC160 19/M01 A2984 RMK SLP106 DENSITY ALT 600FT
  • 251600Z AUTO 20011G19KT 9SM BKN100 BKN120 OVC140 18/M02 A2986 RMK PRESFR SLP115 DENSITY ALT 400FT

TAF TAF CYCA
Valid from the 25 at 14:00 until the 26 at 02:00 UTC


251332Z 2514/2602 21008KT P6SM BKN210
FM251500 21015G25KT P6SM SCT060 BKN100 RMK FCST BASED ON AUTO OBS. NXT FCST BY 252000Z
CZQX FIR / North America



MET'MAP, your aeronautical weather chart ! - Copyright ORBIFLY December 2007 - Disclaimer

ORBIFLY MET'MAP TEAM :

Programming & Development : Alexandra Zaïnal
Concept & original design : Baudouin d'Aumeries
Assistance for programming : Marc-Olivier Méhu
Technical & hardware support : Manuel Goepfert

Contact : metmap@orbifly.com




SOURCES & CREDITS :

   NOAA